Time;durP1;ratioP1;P1;durP2;ratioP2;P2;SDS_P1;SDS_P2;PMS_P1;PMS_P2;Temp;Humidity;BMP_temperature;BMP_pressure;BME280_temperature;BME280_humidity;BME280_pressure;Samples;Min_cycle;Max_cycle;Signal;HPM_P1;HPM_P2
2023/10/07 00:01:22;;;;;;;;;;;23.10;67.20;;;;;;5027354;28;43562;-80
2023/10/07 00:03:49;;;;;;;;;;;22.90;67.10;;;;;;5032843;28;42822;-80
2023/10/07 00:06:16;;;;;;;;;;;23.30;67.40;;;;;;5020709;28;43544;-79
2023/10/07 00:08:42;;;;;;;;;;;23.00;67.10;;;;;;5023214;28;43015;-81
2023/10/07 00:11:11;;;;;;;;;;;23.20;67.10;;;;;;5024964;28;43751;-80
2023/10/07 00:13:41;;;;;;;;;;;23.10;67.20;;;;;;5023697;28;42923;-79
2023/10/07 00:16:07;;;;;;;;;;;23.10;67.00;;;;;;5025090;28;43439;-79
2023/10/07 00:18:34;;;;;;;;;;;22.90;66.50;;;;;;5027834;28;42904;-79
2023/10/07 00:21:02;;;;;;;;;;;23.20;67.20;;;;;;5026936;28;43429;-78
2023/10/07 00:23:28;;;;;;;;;;;23.20;66.50;;;;;;5027136;28;42952;-79
2023/10/07 00:25:54;;;;;;;;;;;23.10;66.90;;;;;;5007682;28;43021;-79
2023/10/07 00:28:36;;;;;;;;;;;23.20;67.10;;;;;;5036531;28;43063;-80
2023/10/07 00:31:02;;;;;;;;;;;23.20;66.50;;;;;;5027303;28;44830;-79
2023/10/07 00:33:30;;;;;;;;;;;23.10;67.40;;;;;;5027596;28;42878;-80
2023/10/07 00:35:57;;;;;;;;;;;23.10;67.80;;;;;;5007220;28;43852;-81
2023/10/07 00:38:37;;;;;;;;;;;23.30;67.70;;;;;;5020876;28;43017;-80
2023/10/07 00:41:03;;;;;;;;;;;21.30;64.00;;;;;;5027272;28;43673;-79
2023/10/07 00:43:30;;;;;;;;;;;22.90;67.50;;;;;;5027096;28;43561;-79
2023/10/07 00:46:20;;;;;;;;;;;23.40;67.60;;;;;;5027379;28;42976;-80
2023/10/07 00:48:56;;;;;;;;;;;23.20;67.70;;;;;;5027203;28;42885;-79
2023/10/07 00:51:33;;;;;;;;;;;23.10;67.60;;;;;;5027198;28;42795;-79
2023/10/07 00:55:09;;;;;;;;;;;23.00;67.50;;;;;;5026546;28;43117;-79
2023/10/07 00:57:24;;;;;;;;;;;22.90;67.70;;;;;;5025594;28;43338;-79
2023/10/07 00:59:41;;;;;;;;;;;23.00;67.90;;;;;;5025934;28;42988;-79
2023/10/07 01:02:16;;;;;;;;;;;23.00;67.90;;;;;;5026178;28;43432;-79
2023/10/07 01:04:42;;;;;;;;;;;22.90;66.10;;;;;;5026681;28;43074;-80
2023/10/07 01:07:13;;;;;;;;;;;23.00;67.60;;;;;;5027146;28;42963;-79
2023/10/07 01:09:39;;;;;;;;;;;23.00;68.00;;;;;;5027179;28;42863;-79
2023/10/07 01:12:08;;;;;;;;;;;24.10;68.70;;;;;;5026784;28;42983;-80
2023/10/07 01:14:35;;;;;;;;;;;23.00;68.00;;;;;;5026577;28;42980;-80
2023/10/07 01:17:03;;;;;;;;;;;22.80;67.50;;;;;;5025975;28;43355;-79
2023/10/07 01:19:30;;;;;;;;;;;22.90;68.20;;;;;;5026522;28;42929;-80
2023/10/07 01:22:09;;;;;;;;;;;23.10;68.10;;;;;;5026825;28;43020;-80
2023/10/07 01:27:16;;;;;;;;;;;23.10;67.50;;;;;;5026209;28;43480;-82
2023/10/07 01:29:42;;;;;;;;;;;23.00;67.20;;;;;;5025076;28;43043;-79
2023/10/07 01:32:16;;;;;;;;;;;22.80;67.80;;;;;;5026029;28;43543;-80
2023/10/07 01:34:47;;;;;;;;;;;22.90;65.20;;;;;;5029285;28;42964;-80
2023/10/07 01:37:15;;;;;;;;;;;22.80;67.50;;;;;;5026469;28;42893;-81
2023/10/07 01:39:42;;;;;;;;;;;23.30;68.50;;;;;;5026196;28;42870;-81
2023/10/07 01:42:14;;;;;;;;;;;23.00;68.40;;;;;;5026027;28;44369;-81
2023/10/07 01:44:41;;;;;;;;;;;22.90;68.40;;;;;;5026239;28;42967;-79
2023/10/07 01:47:23;;;;;;;;;;;22.50;67.70;;;;;;5026672;28;43021;-81
2023/10/07 01:49:53;;;;;;;;;;;23.20;66.20;;;;;;5025707;28;42932;-80
2023/10/07 01:52:19;;;;;;;;;;;22.90;67.80;;;;;;5024979;28;43686;-79
2023/10/07 01:54:45;;;;;;;;;;;23.00;68.40;;;;;;5025909;28;42956;-79
2023/10/07 01:57:10;;;;;;;;;;;23.10;68.30;;;;;;5008031;28;45259;-78
2023/10/07 01:59:36;;;;;;;;;;;22.50;67.40;;;;;;5025870;28;43093;-79
2023/10/07 02:02:06;;;;;;;;;;;23.20;68.20;;;;;;5026007;28;43014;-80
2023/10/07 02:04:36;;;;;;;;;;;22.90;68.10;;;;;;5025749;28;43477;-79
2023/10/07 02:07:02;;;;;;;;;;;22.80;67.70;;;;;;5025641;28;43439;-81
2023/10/07 02:09:34;;;;;;;;;;;22.90;68.60;;;;;;5025916;28;42861;-80
2023/10/07 02:12:01;;;;;;;;;;;22.90;68.40;;;;;;5025921;28;42961;-79
2023/10/07 02:14:27;;;;;;;;;;;22.80;68.40;;;;;;5025174;28;42949;-80
2023/10/07 02:16:53;;;;;;;;;;;22.90;68.70;;;;;;5024941;28;42938;-79
2023/10/07 02:22:22;;;;;;;;;;;22.80;68.50;;;;;;5016249;28;44481;-79
2023/10/07 02:24:55;;;;;;;;;;;22.90;68.10;;;;;;5024865;28;42903;-79
2023/10/07 02:27:25;;;;;;;;;;;22.80;67.60;;;;;;5025035;28;42960;-80
2023/10/07 02:29:51;;;;;;;;;;;22.90;68.20;;;;;;5025107;28;42984;-81
2023/10/07 02:32:17;;;;;;;;;;;22.90;67.70;;;;;;5025411;28;43588;-81
2023/10/07 02:34:53;;;;;;;;;;;22.70;68.30;;;;;;5025054;28;43375;-81
2023/10/07 02:37:21;;;;;;;;;;;22.70;67.90;;;;;;5045584;28;44348;-80
2023/10/07 02:39:47;;;;;;;;;;;22.80;68.40;;;;;;5036735;28;42895;-79
2023/10/07 02:42:20;;;;;;;;;;;22.90;68.50;;;;;;5039905;28;43648;-78
2023/10/07 02:47:39;;;;;;;;;;;22.90;66.40;;;;;;5026257;28;43396;-79
2023/10/07 02:50:07;;;;;;;;;;;22.70;68.50;;;;;;5025523;28;42948;-81
2023/10/07 02:52:37;;;;;;;;;;;22.80;68.10;;;;;;5024229;28;43020;-79
2023/10/07 02:57:45;;;;;;;;;;;22.70;68.30;;;;;;5024806;28;43597;-79
2023/10/07 03:00:29;;;;;;;;;;;22.90;68.50;;;;;;5025456;28;43019;-79
2023/10/07 03:03:10;;;;;;;;;;;23.70;68.30;;;;;;5024816;28;43755;-78
2023/10/07 03:05:43;;;;;;;;;;;22.70;68.60;;;;;;5041711;28;43019;-81
2023/10/07 03:08:31;;;;;;;;;;;23.00;66.40;;;;;;5040528;28;43574;-81
2023/10/07 03:13:58;;;;;;;;;;;22.80;67.60;;;;;;4982211;28;43789;-79
2023/10/07 03:24:07;;;;;;;;;;;22.80;69.20;;;;;;4990472;28;42991;-79
2023/10/07 03:26:34;;;;;;;;;;;22.80;68.60;;;;;;4983009;28;43128;-79
2023/10/07 03:29:04;;;;;;;;;;;23.00;69.00;;;;;;4980990;28;43906;-79
2023/10/07 03:31:47;;;;;;;;;;;23.10;68.90;;;;;;4982213;28;42990;-81
2023/10/07 03:34:13;;;;;;;;;;;22.90;66.70;;;;;;4982024;28;44600;-80
2023/10/07 03:36:44;;;;;;;;;;;23.40;68.60;;;;;;4988817;28;43128;-79
2023/10/07 03:41:51;;;;;;;;;;;22.60;68.50;;;;;;4981869;28;43096;-79
2023/10/07 03:44:17;;;;;;;;;;;22.70;66.50;;;;;;4981637;28;42963;-79
2023/10/07 03:46:44;;;;;;;;;;;22.60;68.80;;;;;;4983362;28;43054;-81
2023/10/07 03:49:11;;;;;;;;;;;22.60;69.10;;;;;;5023626;28;43062;-80
2023/10/07 03:51:55;;;;;;;;;;;22.60;68.80;;;;;;5027730;28;43050;-79
2023/10/07 03:54:29;;;;;;;;;;;22.80;67.30;;;;;;5011105;28;44750;-80
2023/10/07 03:56:56;;;;;;;;;;;22.70;67.10;;;;;;5028682;28;43063;-79
2023/10/07 03:59:21;;;;;;;;;;;22.70;68.90;;;;;;5031310;28;43439;-78
2023/10/07 04:01:53;;;;;;;;;;;22.70;68.40;;;;;;5029987;28;43000;-79
2023/10/07 04:04:22;;;;;;;;;;;22.70;68.90;;;;;;5027213;28;42942;-79
2023/10/07 04:06:48;;;;;;;;;;;22.50;68.80;;;;;;5030288;28;43037;-78
2023/10/07 04:09:14;;;;;;;;;;;22.70;68.50;;;;;;5037459;28;43856;-80
2023/10/07 04:11:48;;;;;;;;;;;22.50;69.10;;;;;;5011967;28;42872;-79
2023/10/07 04:14:27;;;;;;;;;;;22.60;68.70;;;;;;5018226;28;43049;-78
2023/10/07 04:17:06;;;;;;;;;;;22.60;69.40;;;;;;5029769;28;42886;-80
2023/10/07 04:19:38;;;;;;;;;;;22.70;66.70;;;;;;5030922;28;42983;-79
2023/10/07 04:22:07;;;;;;;;;;;22.80;68.90;;;;;;5030920;28;42912;-78
2023/10/07 04:25:17;;;;;;;;;;;22.60;68.50;;;;;;5030259;28;43344;-79
2023/10/07 04:30:53;;;;;;;;;;;22.60;66.40;;;;;;5024315;28;43298;-79
2023/10/07 04:33:40;;;;;;;;;;;22.30;66.90;;;;;;5032882;28;44079;-80
2023/10/07 04:36:33;;;;;;;;;;;22.80;66.40;;;;;;5025316;28;43211;-81
2023/10/07 04:39:08;;;;;;;;;;;22.60;66.60;;;;;;5030070;28;42933;-79
2023/10/07 04:41:36;;;;;;;;;;;22.70;68.80;;;;;;5030658;28;43579;-81
2023/10/07 04:46:56;;;;;;;;;;;22.50;68.70;;;;;;5031254;28;42890;-79
2023/10/07 04:49:26;;;;;;;;;;;22.60;66.10;;;;;;5030240;28;42877;-78
2023/10/07 04:51:54;;;;;;;;;;;22.60;67.90;;;;;;5030015;28;43565;-80
2023/10/07 04:54:20;;;;;;;;;;;22.60;67.90;;;;;;5029307;28;42926;-78
2023/10/07 04:57:00;;;;;;;;;;;22.50;68.70;;;;;;5030447;28;43343;-79
2023/10/07 04:59:26;;;;;;;;;;;22.50;66.70;;;;;;5045703;28;43085;-79
2023/10/07 05:02:15;;;;;;;;;;;22.60;68.60;;;;;;5033594;28;43372;-80
2023/10/07 05:04:39;;;;;;;;;;;22.60;69.10;;;;;;5041391;28;43003;-80
2023/10/07 05:07:05;;;;;;;;;;;22.60;68.80;;;;;;5046532;28;43415;-80
2023/10/07 05:09:32;;;;;;;;;;;22.60;68.90;;;;;;5030845;28;43163;-80
2023/10/07 05:11:58;;;;;;;;;;;22.50;68.40;;;;;;5027297;28;43821;-78
2023/10/07 05:14:25;;;;;;;;;;;22.50;69.20;;;;;;5013401;28;42988;-80
2023/10/07 05:16:52;;;;;;;;;;;22.50;68.90;;;;;;5006020;28;42953;-79
2023/10/07 05:19:22;;;;;;;;;;;22.60;69.30;;;;;;5015825;28;42888;-79
2023/10/07 05:21:58;;;;;;;;;;;20.70;68.30;;;;;;5014825;28;45009;-78
2023/10/07 05:24:28;;;;;;;;;;;22.70;69.30;;;;;;5039355;28;43146;-79
2023/10/07 05:26:54;;;;;;;;;;;22.50;69.30;;;;;;5033242;28;44525;-79
2023/10/07 05:29:20;;;;;;;;;;;22.60;69.10;;;;;;5029143;28;42895;-79
2023/10/07 05:31:46;;;;;;;;;;;22.60;68.70;;;;;;5026818;28;43444;-79
2023/10/07 05:34:11;;;;;;;;;;;22.60;68.70;;;;;;5027203;28;42936;-80
2023/10/07 05:36:38;;;;;;;;;;;22.60;68.60;;;;;;5019637;28;42948;-79
2023/10/07 05:39:07;;;;;;;;;;;22.40;69.10;;;;;;5023341;28;43067;-79
2023/10/07 05:41:32;;;;;;;;;;;22.50;69.40;;;;;;5007692;28;43554;-78
2023/10/07 05:43:59;;;;;;;;;;;22.70;69.00;;;;;;5024293;28;43771;-79
2023/10/07 05:46:24;;;;;;;;;;;22.70;69.30;;;;;;5023240;28;45392;-79
2023/10/07 05:48:51;;;;;;;;;;;22.70;68.70;;;;;;5025282;28;43240;-79
2023/10/07 05:51:17;;;;;;;;;;;22.70;68.70;;;;;;5025568;28;43153;-79
2023/10/07 05:53:45;;;;;;;;;;;22.70;67.70;;;;;;5024317;28;44095;-79
2023/10/07 05:56:10;;;;;;;;;;;22.80;68.80;;;;;;5025666;28;43554;-77
2023/10/07 05:58:36;;;;;;;;;;;22.90;68.40;;;;;;5034693;28;43032;-79
2023/10/07 06:01:03;;;;;;;;;;;22.80;68.00;;;;;;5040171;28;43640;-80
2023/10/07 06:03:29;;;;;;;;;;;23.00;67.70;;;;;;5045049;28;43130;-79
2023/10/07 06:05:57;;;;;;;;;;;23.00;68.00;;;;;;5030354;28;43046;-79
2023/10/07 06:08:26;;;;;;;;;;;23.10;68.30;;;;;;5023985;28;43068;-79
2023/10/07 06:10:52;;;;;;;;;;;23.00;65.60;;;;;;5028778;28;43111;-79
2023/10/07 06:13:18;;;;;;;;;;;23.10;68.20;;;;;;5025102;28;42815;-80
2023/10/07 06:15:45;;;;;;;;;;;23.10;68.20;;;;;;5019831;28;43859;-78
2023/10/07 06:18:13;;;;;;;;;;;23.10;65.90;;;;;;5021806;28;43006;-79
2023/10/07 06:20:38;;;;;;;;;;;23.00;67.80;;;;;;5025655;28;43797;-78
2023/10/07 06:23:13;;;;;;;;;;;23.20;68.20;;;;;;5025777;28;42885;-79
2023/10/07 06:25:48;;;;;;;;;;;23.00;65.50;;;;;;5009883;28;43743;-78
2023/10/07 06:28:29;;;;;;;;;;;23.20;65.50;;;;;;5024132;28;42909;-80
2023/10/07 06:31:01;;;;;;;;;;;23.10;65.50;;;;;;5022733;28;42980;-79
2023/10/07 06:33:27;;;;;;;;;;;23.20;65.50;;;;;;5030404;28;42835;-79
2023/10/07 06:35:53;;;;;;;;;;;23.20;67.80;;;;;;5020674;28;43738;-79
2023/10/07 06:38:19;;;;;;;;;;;23.20;67.90;;;;;;5033822;28;43087;-79
2023/10/07 06:40:45;;;;;;;;;;;23.30;67.90;;;;;;5022711;28;42945;-79
2023/10/07 06:43:14;;;;;;;;;;;23.20;68.10;;;;;;5023676;28;43820;-78
2023/10/07 06:45:44;;;;;;;;;;;23.20;67.50;;;;;;5023780;28;43721;-79
2023/10/07 06:48:11;;;;;;;;;;;23.20;67.90;;;;;;5024946;28;43078;-79
2023/10/07 06:50:41;;;;;;;;;;;23.30;68.00;;;;;;5031416;28;43112;-78
2023/10/07 06:53:14;;;;;;;;;;;23.30;68.10;;;;;;5015979;28;42933;-79
2023/10/07 06:55:43;;;;;;;;;;;23.20;65.60;;;;;;5040417;28;45704;-79
2023/10/07 06:58:09;;;;;;;;;;;23.30;68.10;;;;;;5034354;28;43003;-81
2023/10/07 07:00:47;;;;;;;;;;;23.40;68.30;;;;;;5029399;28;43922;-79
2023/10/07 07:03:18;;;;;;;;;;;23.20;66.00;;;;;;5035147;28;43092;-78
2023/10/07 07:05:45;;;;;;;;;;;23.20;68.10;;;;;;5024832;28;44404;-79
2023/10/07 07:08:11;;;;;;;;;;;23.40;68.20;;;;;;5034074;28;42961;-80
2023/10/07 07:10:37;;;;;;;;;;;23.40;68.20;;;;;;5036303;28;42792;-80
2023/10/07 07:13:12;;;;;;;;;;;23.30;67.70;;;;;;5033168;28;43064;-79
2023/10/07 07:15:38;;;;;;;;;;;23.30;65.50;;;;;;5039510;28;45567;-79
2023/10/07 07:23:24;;;;;;;;;;;23.20;65.90;;;;;;5033148;28;43143;-79
2023/10/07 07:25:59;;;;;;;;;;;23.30;68.20;;;;;;5031690;28;43289;-80
2023/10/07 07:28:27;;;;;;;;;;;23.30;68.80;;;;;;5036056;28;42905;-80
2023/10/07 07:30:57;;;;;;;;;;;23.20;69.10;;;;;;5030426;28;44613;-79
2023/10/07 07:33:37;;;;;;;;;;;23.40;68.90;;;;;;5015939;28;60535;-80
2023/10/07 07:36:18;;;;;;;;;;;23.40;68.80;;;;;;5030953;28;44019;-80
2023/10/07 07:38:43;;;;;;;;;;;23.40;68.00;;;;;;5035102;28;43086;-79
2023/10/07 07:41:26;;;;;;;;;;;23.20;67.80;;;;;;5034108;28;43839;-79
2023/10/07 07:43:51;;;;;;;;;;;23.10;65.90;;;;;;5029687;28;43001;-80
2023/10/07 07:48:43;;;;;;;;;;;23.30;67.70;;;;;;5033405;28;43100;-79
2023/10/07 07:51:09;;;;;;;;;;;23.50;68.30;;;;;;5026678;28;43335;-79
2023/10/07 07:53:35;;;;;;;;;;;23.30;68.60;;;;;;5032616;28;43189;-79
2023/10/07 07:56:02;;;;;;;;;;;23.40;67.30;;;;;;5034213;28;42825;-80
2023/10/07 07:58:27;;;;;;;;;;;23.30;67.70;;;;;;5033132;28;43035;-84
2023/10/07 08:01:01;;;;;;;;;;;23.20;67.20;;;;;;5035522;28;42995;-84
2023/10/07 08:03:26;;;;;;;;;;;23.30;65.00;;;;;;5020648;28;43068;-84
2023/10/07 08:05:53;;;;;;;;;;;23.40;67.40;;;;;;5036911;28;43316;-85
2023/10/07 08:08:19;;;;;;;;;;;23.50;67.60;;;;;;5029985;28;43034;-86
2023/10/07 08:10:46;;;;;;;;;;;23.30;67.50;;;;;;5040779;28;42950;-86
2023/10/07 08:13:12;;;;;;;;;;;23.20;67.30;;;;;;5027433;28;43000;-85
2023/10/07 08:15:41;;;;;;;;;;;23.40;67.20;;;;;;5025240;28;43479;-85
2023/10/07 08:18:07;;;;;;;;;;;23.30;65.80;;;;;;5021708;28;42994;-86
2023/10/07 08:20:37;;;;;;;;;;;23.30;67.10;;;;;;5023722;28;43875;-85
2023/10/07 08:23:07;;;;;;;;;;;23.40;67.00;;;;;;5023114;28;42979;-85
2023/10/07 08:29:00;;;;;;;;;;;23.40;65.40;;;;;;5004627;28;43062;-84
2023/10/07 08:32:08;;;;;;;;;;;23.50;67.40;;;;;;5009432;28;43530;-84
2023/10/07 08:34:37;;;;;;;;;;;23.60;67.70;;;;;;5011613;28;43196;-83
2023/10/07 08:37:03;;;;;;;;;;;23.40;67.40;;;;;;5009478;28;43468;-82
2023/10/07 08:39:29;;;;;;;;;;;23.50;67.40;;;;;;5014486;28;43037;-83
2023/10/07 08:41:58;;;;;;;;;;;23.50;67.10;;;;;;5010613;28;43922;-83
2023/10/07 08:44:31;;;;;;;;;;;23.50;67.20;;;;;;5015314;28;43163;-83
2023/10/07 08:53:17;;;;;;;;;;;23.50;67.00;;;;;;4985666;28;43156;-88
2023/10/07 09:20:07;;;;;;;;;;;;;;;;;;5019960;22;43075;-88
2023/10/07 09:22:34;;;;;;;;;;;23.40;65.70;;;;;;5072614;28;43017;-86
2023/10/07 09:28:07;;;;;;;;;;;23.40;65.60;;;;;;5068722;28;42976;-85
2023/10/07 09:42:26;;;;;;;;;;;23.40;65.70;;;;;;5944295;22;43976;-87
2023/10/07 09:44:55;;;;;;;;;;;23.30;63.40;;;;;;5098053;27;43501;-86
2023/10/07 09:47:21;;;;;;;;;;;23.50;65.90;;;;;;5093344;27;42765;-86
2023/10/07 09:49:57;;;;;;;;;;;;;;;;;;;;;
2023/10/07 09:52:29;;;;;;;;;;;23.50;66.20;;;;;;5112022;27;67474;-87
2023/10/07 09:55:22;;;;;;;;;;;23.50;66.20;;;;;;5118253;27;43466;-87
2023/10/07 09:58:06;;;;;;;;;;;23.40;66.00;;;;;;5113773;27;42977;-87
2023/10/07 10:24:31;;;;;;;;;;;23.50;65.90;;;;;;5078555;22;72144;-85
2023/10/07 10:27:44;;;;;;;;;;;23.30;63.30;;;;;;5065575;28;43156;-85
2023/10/07 10:30:21;;;;;;;;;;;23.60;66.00;;;;;;5003045;28;42989;-85
2023/10/07 10:32:51;;;;;;;;;;;23.10;65.70;;;;;;5007333;28;43055;-85
2023/10/07 10:35:23;;;;;;;;;;;23.70;66.00;;;;;;5009214;28;43872;-84
2023/10/07 10:38:00;;;;;;;;;;;23.50;65.90;;;;;;5012216;28;43102;-84
2023/10/07 10:40:37;;;;;;;;;;;23.60;65.90;;;;;;5002116;28;43608;-80
2023/10/07 10:43:12;;;;;;;;;;;23.50;65.70;;;;;;5010085;28;42902;-80
2023/10/07 10:45:41;;;;;;;;;;;23.60;65.80;;;;;;5003975;28;43993;-79
2023/10/07 10:48:08;;;;;;;;;;;23.70;66.20;;;;;;5005053;28;43160;-81
2023/10/07 10:50:34;;;;;;;;;;;23.60;65.90;;;;;;5003357;28;42930;-81
2023/10/07 10:53:00;;;;;;;;;;;23.70;66.40;;;;;;5006760;28;43398;-83
2023/10/07 10:55:33;;;;;;;;;;;23.50;66.40;;;;;;5014763;28;43481;-84
2023/10/07 10:58:00;;;;;;;;;;;23.70;66.40;;;;;;5014123;28;43034;-84
2023/10/07 11:00:25;;;;;;;;;;;23.60;66.30;;;;;;5022887;28;43126;-84
2023/10/07 11:03:21;;;;;;;;;;;23.60;66.00;;;;;;5062201;28;42827;-84
2023/10/07 11:05:48;;;;;;;;;;;23.60;65.90;;;;;;5061950;28;43791;-84
2023/10/07 11:08:22;;;;;;;;;;;23.70;65.90;;;;;;5063354;28;43045;-83
2023/10/07 11:11:00;;;;;;;;;;;23.80;66.30;;;;;;5065108;28;43641;-83
2023/10/07 11:13:26;;;;;;;;;;;23.80;64.00;;;;;;5069709;28;43061;-83
2023/10/07 11:18:57;;;;;;;;;;;23.80;63.20;;;;;;5058181;28;42875;-83
2023/10/07 11:21:23;;;;;;;;;;;23.70;65.80;;;;;;5065015;28;43124;-82
2023/10/07 11:23:50;;;;;;;;;;;23.60;65.90;;;;;;5047619;28;43051;-83
2023/10/07 11:26:17;;;;;;;;;;;23.80;66.00;;;;;;5044107;28;43884;-84
2023/10/07 11:28:43;;;;;;;;;;;23.90;66.10;;;;;;5040775;28;42986;-81
2023/10/07 11:31:08;;;;;;;;;;;23.60;66.50;;;;;;5044166;28;43723;-81
2023/10/07 11:33:34;;;;;;;;;;;23.70;66.00;;;;;;5028979;28;42917;-81
2023/10/07 11:36:02;;;;;;;;;;;23.70;66.50;;;;;;5052542;28;42911;-81
2023/10/07 11:38:28;;;;;;;;;;;23.70;66.60;;;;;;5053498;28;42906;-82
2023/10/07 11:40:55;;;;;;;;;;;23.50;66.60;;;;;;5044731;28;43295;-83
2023/10/07 11:43:23;;;;;;;;;;;23.70;66.70;;;;;;5044778;28;42826;-83
2023/10/07 11:45:50;;;;;;;;;;;23.70;66.60;;;;;;5045386;28;43599;-82
2023/10/07 11:48:21;;;;;;;;;;;23.80;66.00;;;;;;5044467;28;43007;-84
2023/10/07 11:50:47;;;;;;;;;;;23.70;66.60;;;;;;5044496;28;44298;-81
2023/10/07 11:53:12;;;;;;;;;;;23.70;66.30;;;;;;5045056;28;43109;-82
2023/10/07 11:55:38;;;;;;;;;;;23.90;66.60;;;;;;5049736;28;43020;-82
2023/10/07 11:58:07;;;;;;;;;;;23.70;66.10;;;;;;5053252;28;43007;-82
2023/10/07 12:00:34;;;;;;;;;;;23.70;66.10;;;;;;5049066;28;44234;-83
2023/10/07 12:03:01;;;;;;;;;;;23.60;66.50;;;;;;5049499;28;43008;-83
2023/10/07 12:05:27;;;;;;;;;;;23.90;66.90;;;;;;5049507;28;42970;-83
2023/10/07 12:07:59;;;;;;;;;;;23.70;66.70;;;;;;5050444;28;42968;-84
2023/10/07 12:10:25;;;;;;;;;;;23.50;66.60;;;;;;5051490;28;43427;-81
2023/10/07 12:12:52;;;;;;;;;;;23.70;66.70;;;;;;5052158;28;42939;-83
2023/10/07 12:15:17;;;;;;;;;;;23.70;66.10;;;;;;5039762;28;44207;-83
2023/10/07 12:17:46;;;;;;;;;;;23.80;66.40;;;;;;5046949;28;42977;-83
2023/10/07 12:20:20;;;;;;;;;;;23.80;66.60;;;;;;5046962;28;43688;-83
2023/10/07 12:22:46;;;;;;;;;;;23.80;65.10;;;;;;5047165;28;42957;-84
2023/10/07 12:25:16;;;;;;;;;;;23.80;66.10;;;;;;5066872;28;43510;-82
2023/10/07 12:27:42;;;;;;;;;;;23.80;66.40;;;;;;5067147;28;43065;-83
2023/10/07 12:30:11;;;;;;;;;;;23.80;66.10;;;;;;5065694;28;42995;-83
2023/10/07 12:32:41;;;;;;;;;;;24.30;66.10;;;;;;5067056;28;42933;-83
2023/10/07 12:35:09;;;;;;;;;;;23.90;64.40;;;;;;5065476;28;42916;-83
2023/10/07 12:37:38;;;;;;;;;;;23.90;66.50;;;;;;5066623;28;42953;-83
2023/10/07 12:40:05;;;;;;;;;;;23.70;67.00;;;;;;5064327;28;43595;-83
2023/10/07 12:42:32;;;;;;;;;;;24.00;66.60;;;;;;5067099;28;42990;-84
2023/10/07 12:45:00;;;;;;;;;;;23.80;67.10;;;;;;5066998;28;42806;-84
2023/10/07 12:47:29;;;;;;;;;;;23.80;66.60;;;;;;5066898;28;42920;-84
2023/10/07 12:49:55;;;;;;;;;;;23.70;67.00;;;;;;5066946;28;43108;-81
2023/10/07 12:52:20;;;;;;;;;;;23.90;67.40;;;;;;5067258;28;43023;-84
2023/10/07 12:54:46;;;;;;;;;;;23.90;67.50;;;;;;5075072;28;43779;-83
2023/10/07 12:57:15;;;;;;;;;;;23.80;67.10;;;;;;5074875;28;42939;-83
2023/10/07 12:59:42;;;;;;;;;;;23.80;67.70;;;;;;5074447;28;44099;-83
2023/10/07 13:02:09;;;;;;;;;;;23.70;67.60;;;;;;5077415;28;43113;-84
2023/10/07 13:04:35;;;;;;;;;;;23.80;67.70;;;;;;5072594;28;43792;-85
2023/10/07 13:07:03;;;;;;;;;;;23.90;67.30;;;;;;5069063;28;43047;-83
2023/10/07 13:09:30;;;;;;;;;;;23.90;67.90;;;;;;5066676;28;43551;-85
2023/10/07 13:12:00;;;;;;;;;;;24.00;67.90;;;;;;5066040;28;43087;-83
2023/10/07 13:14:26;;;;;;;;;;;24.30;65.70;;;;;;5066849;28;44149;-86
2023/10/07 13:16:56;;;;;;;;;;;23.90;68.00;;;;;;5064709;28;43057;-84
2023/10/07 13:19:26;;;;;;;;;;;23.80;67.50;;;;;;5067298;28;43570;-83
2023/10/07 13:21:52;;;;;;;;;;;23.90;68.10;;;;;;5067655;28;42839;-83
2023/10/07 13:24:18;;;;;;;;;;;23.70;68.10;;;;;;5066094;28;42940;-82
2023/10/07 13:26:44;;;;;;;;;;;23.70;67.80;;;;;;5067575;28;43031;-82
2023/10/07 13:29:10;;;;;;;;;;;23.80;67.90;;;;;;5067640;28;43202;-82
2023/10/07 13:31:36;;;;;;;;;;;23.70;68.10;;;;;;5067691;28;42919;-83
2023/10/07 13:34:04;;;;;;;;;;;23.90;68.30;;;;;;5066749;28;43745;-84
2023/10/07 13:36:29;;;;;;;;;;;23.80;68.10;;;;;;5070496;28;42938;-84
2023/10/07 13:38:57;;;;;;;;;;;23.80;67.80;;;;;;5076713;28;43538;-82
2023/10/07 13:41:23;;;;;;;;;;;23.90;67.90;;;;;;5059698;28;42880;-84
2023/10/07 13:43:48;;;;;;;;;;;23.80;67.60;;;;;;5077256;28;42748;-86
2023/10/07 13:46:14;;;;;;;;;;;23.90;67.80;;;;;;5067111;28;42914;-86
2023/10/07 13:48:43;;;;;;;;;;;23.90;68.30;;;;;;5066826;28;44404;-84
2023/10/07 13:51:08;;;;;;;;;;;24.60;66.30;;;;;;5066693;28;42993;-85
2023/10/07 13:54:22;;;;;;;;;;;23.70;67.90;;;;;;5066869;28;42933;-83
2023/10/07 13:57:02;;;;;;;;;;;23.60;66.30;;;;;;5066236;28;43103;-85
2023/10/07 14:18:34;;;;;;;;;;;25.50;68.70;;;;;;5203102;22;43267;-84
2023/10/07 14:21:01;;;;;;;;;;;24.00;67.80;;;;;;5066640;28;43120;-84
2023/10/07 14:23:33;;;;;;;;;;;24.00;68.50;;;;;;5065920;28;43006;-85
2023/10/07 14:26:03;;;;;;;;;;;23.80;68.70;;;;;;5066058;28;43034;-84
2023/10/07 14:28:28;;;;;;;;;;;23.80;66.70;;;;;;5066194;28;42991;-84
2023/10/07 14:30:57;;;;;;;;;;;23.80;68.70;;;;;;5066412;28;42962;-85
2023/10/07 14:33:23;;;;;;;;;;;23.80;67.30;;;;;;5066145;28;42847;-84
2023/10/07 14:35:50;;;;;;;;;;;23.90;68.30;;;;;;5066205;28;42852;-82
2023/10/07 14:38:16;;;;;;;;;;;23.80;68.90;;;;;;5066240;28;42856;-81
2023/10/07 14:40:44;;;;;;;;;;;24.00;69.10;;;;;;5066531;28;43788;-83
2023/10/07 14:43:12;;;;;;;;;;;23.90;68.30;;;;;;5066653;28;42905;-83
2023/10/07 14:45:39;;;;;;;;;;;23.90;69.10;;;;;;5066236;28;43749;-81
2023/10/07 14:48:05;;;;;;;;;;;23.70;68.80;;;;;;5066425;28;42932;-84
2023/10/07 14:50:34;;;;;;;;;;;23.80;68.40;;;;;;5066098;28;42794;-83
2023/10/07 14:53:00;;;;;;;;;;;23.80;66.50;;;;;;5048230;28;43047;-84
2023/10/07 14:55:30;;;;;;;;;;;24.00;68.60;;;;;;5066205;28;43343;-85
2023/10/07 14:58:00;;;;;;;;;;;23.80;69.10;;;;;;5065297;28;43586;-85
2023/10/07 15:00:26;;;;;;;;;;;24.00;69.40;;;;;;5065202;28;42966;-85
2023/10/07 15:02:52;;;;;;;;;;;23.90;69.10;;;;;;5065901;28;42773;-85
2023/10/07 15:05:17;;;;;;;;;;;23.90;69.00;;;;;;5066217;28;43686;-84
2023/10/07 15:07:44;;;;;;;;;;;23.90;68.40;;;;;;5066083;28;42816;-85
2023/10/07 15:10:10;;;;;;;;;;;23.90;69.20;;;;;;5047054;28;43817;-85
2023/10/07 15:12:35;;;;;;;;;;;23.80;68.80;;;;;;5065935;28;42832;-83
2023/10/07 15:15:01;;;;;;;;;;;23.90;68.60;;;;;;5065802;28;43560;-84
2023/10/07 15:17:27;;;;;;;;;;;23.60;69.00;;;;;;5065419;28;42858;-84
2023/10/07 15:19:53;;;;;;;;;;;24.00;68.90;;;;;;5065779;28;43726;-84
2023/10/07 15:22:19;;;;;;;;;;;23.90;69.00;;;;;;5065720;28;43068;-84
2023/10/07 15:24:46;;;;;;;;;;;23.90;68.50;;;;;;5066109;28;43632;-82
2023/10/07 15:27:14;;;;;;;;;;;23.90;66.50;;;;;;5065652;28;43386;-84
2023/10/07 15:29:40;;;;;;;;;;;23.90;66.50;;;;;;5047499;28;44413;-81
2023/10/07 15:32:08;;;;;;;;;;;23.90;69.00;;;;;;5065929;28;43015;-83
2023/10/07 15:34:34;;;;;;;;;;;24.00;66.70;;;;;;5064577;28;43705;-84
2023/10/07 15:37:00;;;;;;;;;;;23.80;68.50;;;;;;5065154;28;43012;-84
2023/10/07 15:39:26;;;;;;;;;;;23.80;69.00;;;;;;5064862;28;43760;-85
2023/10/07 15:41:52;;;;;;;;;;;23.90;68.90;;;;;;5065786;28;43026;-84
2023/10/07 15:44:18;;;;;;;;;;;24.00;68.90;;;;;;5066067;28;42939;-85
2023/10/07 15:46:43;;;;;;;;;;;23.90;68.90;;;;;;5065097;28;42885;-84
2023/10/07 15:49:12;;;;;;;;;;;24.10;68.30;;;;;;5065223;28;42812;-83
2023/10/07 15:51:37;;;;;;;;;;;24.00;67.00;;;;;;5047153;28;43058;-84
2023/10/07 15:54:08;;;;;;;;;;;24.10;68.90;;;;;;5064757;28;43049;-85
2023/10/07 15:56:34;;;;;;;;;;;23.80;67.40;;;;;;5065271;28;42908;-85
2023/10/07 15:59:00;;;;;;;;;;;24.00;69.30;;;;;;5065148;28;43486;-83
2023/10/07 16:01:26;;;;;;;;;;;24.00;69.00;;;;;;5065063;28;42892;-84
2023/10/07 16:03:52;;;;;;;;;;;23.80;68.90;;;;;;5065062;28;43550;-85
2023/10/07 16:06:17;;;;;;;;;;;24.00;68.50;;;;;;5064795;28;42998;-85
2023/10/07 16:08:44;;;;;;;;;;;24.00;68.50;;;;;;5064383;28;43441;-82
2023/10/07 16:11:15;;;;;;;;;;;24.00;69.00;;;;;;5064882;28;42940;-85
2023/10/07 16:13:40;;;;;;;;;;;23.90;69.00;;;;;;5063932;28;42883;-83
2023/10/07 16:16:07;;;;;;;;;;;24.90;69.40;;;;;;5065094;28;43095;-84
2023/10/07 16:18:39;;;;;;;;;;;24.00;69.10;;;;;;5064444;28;43725;-85
2023/10/07 16:21:15;;;;;;;;;;;22.80;65.70;;;;;;5064400;28;42940;-84
2023/10/07 16:23:41;;;;;;;;;;;24.00;66.50;;;;;;5073899;28;42763;-85
2023/10/07 16:26:07;;;;;;;;;;;24.00;69.00;;;;;;5054423;28;42801;-84
2023/10/07 16:28:33;;;;;;;;;;;24.00;69.20;;;;;;5074571;28;42837;-84
2023/10/07 16:30:59;;;;;;;;;;;24.20;69.40;;;;;;5068483;28;42943;-82
2023/10/07 16:33:25;;;;;;;;;;;23.90;69.30;;;;;;5055083;28;43792;-83
2023/10/07 16:35:51;;;;;;;;;;;23.90;69.50;;;;;;5064558;28;43244;-82
2023/10/07 16:38:16;;;;;;;;;;;24.10;68.90;;;;;;5063287;28;43559;-82
2023/10/07 16:40:42;;;;;;;;;;;24.10;69.60;;;;;;5063686;28;43015;-81
2023/10/07 16:43:08;;;;;;;;;;;24.00;69.40;;;;;;5062217;28;43409;-82
2023/10/07 16:45:34;;;;;;;;;;;24.10;69.20;;;;;;5050329;28;43132;-83